Time;durP1;ratioP1;P1;durP2;ratioP2;P2;SDS_P1;SDS_P2;PMS_P1;PMS_P2;Temp;Humidity;BMP_temperature;BMP_pressure;BME280_temperature;BME280_humidity;BME280_pressure;Samples;Min_cycle;Max_cycle;Signal;HPM_P1;HPM_P2
2022/09/16 00:02:40;;;;;;;5.05;0.60;;;19.40;58.30;;;;;;10525220;28;20075;-32
2022/09/16 00:07:42;;;;;;;1.55;0.43;;;20.80;55.60;;;;;;10522801;28;20481;-33
2022/09/16 00:12:46;;;;;;;4.15;0.60;;;19.70;57.40;;;;;;10522655;28;20143;-31
2022/09/16 00:17:48;;;;;;;2.13;0.50;;;18.20;59.50;;;;;;10521773;28;20568;-34
2022/09/16 00:22:50;;;;;;;3.92;0.98;;;19.40;58.10;;;;;;10523023;28;20051;-36
2022/09/16 00:27:53;;;;;;;3.88;0.55;;;19.00;60.20;;;;;;10522135;28;20044;-33
2022/09/16 00:32:55;;;;;;;3.33;0.80;;;18.40;60.60;;;;;;10523787;28;20079;-33
2022/09/16 00:37:57;;;;;;;0.93;0.40;;;21.30;54.40;;;;;;10523866;28;20048;-35
2022/09/16 00:43:00;;;;;;;5.22;0.73;;;20.20;57.30;;;;;;10521110;28;20135;-31
2022/09/16 00:48:06;;;;;;;4.22;0.55;;;18.40;61.40;;;;;;10521942;28;20959;-35
2022/09/16 00:53:15;;;;;;;0.85;0.20;;;19.80;59.10;;;;;;10521751;28;20502;-30
2022/09/16 00:58:23;;;;;;;0.70;0.40;;;20.80;55.70;;;;;;10523127;28;20488;-33
2022/09/16 01:03:25;;;;;;;3.28;0.40;;;21.10;54.80;;;;;;10525394;28;20495;-34
2022/09/16 01:08:28;;;;;;;0.55;0.30;;;21.20;54.60;;;;;;10525566;28;20072;-34
2022/09/16 01:13:31;;;;;;;2.65;0.50;;;21.60;53.70;;;;;;10521145;28;20048;-29
2022/09/16 01:18:43;;;;;;;0.95;0.30;;;21.10;54.50;;;;;;10518923;28;20055;-34
2022/09/16 01:24:02;;;;;;;3.53;0.40;;;21.10;55.90;;;;;;10521530;28;20044;-35
2022/09/16 01:29:35;;;;;;;4.32;0.90;;;19.80;57.90;;;;;;10523023;28;20048;-34
2022/09/16 01:34:53;;;;;;;5.00;0.68;;;19.70;56.70;;;;;;10512668;28;20076;-32
2022/09/16 01:40:03;;;;;;;2.78;0.40;;;19.10;61.30;;;;;;10522401;28;20048;-34
2022/09/16 01:45:12;;;;;;;1.92;0.47;;;20.20;56.90;;;;;;10521967;28;20434;-36
2022/09/16 01:50:20;;;;;;;5.40;0.50;;;20.40;57.00;;;;;;10523904;28;20048;-36
2022/09/16 01:55:28;;;;;;;1.17;0.50;;;21.10;55.00;;;;;;10525333;28;20130;-38
2022/09/16 02:00:31;;;;;;;4.78;0.40;;;19.40;59.20;;;;;;10522835;28;20048;-35
2022/09/16 02:05:40;;;;;;;5.00;0.60;;;20.00;57.80;;;;;;10522558;28;20040;-34
2022/09/16 02:10:46;;;;;;;5.35;0.77;;;20.30;55.90;;;;;;10524048;28;20036;-39
2022/09/16 02:15:52;;;;;;;4.85;0.45;;;20.60;55.80;;;;;;10522952;28;20436;-35
2022/09/16 02:20:58;;;;;;;6.07;0.80;;;19.60;58.90;;;;;;10523753;28;20054;-34
2022/09/16 02:26:01;;;;;;;1.67;0.40;;;20.10;56.90;;;;;;10521152;28;20044;-32
2022/09/16 02:31:06;;;;;;;5.05;0.75;;;19.50;58.20;;;;;;10520748;28;20048;-33
2022/09/16 02:36:14;;;;;;;4.13;0.47;;;18.90;59.30;;;;;;10519872;28;20493;-34
2022/09/16 02:41:18;;;;;;;1.92;0.40;;;19.70;58.40;;;;;;10521385;28;20056;-34
2022/09/16 02:46:26;;;;;;;1.58;0.40;;;19.40;58.20;;;;;;10501191;28;20103;-36
2022/09/16 02:51:37;;;;;;;1.63;0.43;;;20.40;56.20;;;;;;10481028;28;20086;-35
2022/09/16 02:56:41;;;;;;;3.38;0.35;;;21.20;54.30;;;;;;10478983;28;20048;-35
2022/09/16 03:01:46;;;;;;;6.07;0.55;;;21.10;54.40;;;;;;10481366;28;20122;-36
2022/09/16 03:06:49;;;;;;;1.98;0.45;;;20.00;56.30;;;;;;10480941;28;20048;-35
2022/09/16 03:12:11;;;;;;;4.03;0.80;;;18.10;64.30;;;;;;10483425;28;20049;-30
2022/09/16 03:17:19;;;;;;;;;;;20.00;58.00;;;;;;10486956;28;20048;-37
2022/09/16 03:22:33;;;;;;;3.42;0.32;;;21.00;55.30;;;;;;10481748;28;20365;-35
2022/09/16 03:27:42;;;;;;;7.78;0.73;;;21.40;54.20;;;;;;10484715;28;20041;-34
2022/09/16 03:32:49;;;;;;;3.63;0.52;;;20.40;54.50;;;;;;10484482;28;20543;-35
2022/09/16 03:37:54;;;;;;;21.50;1.50;;;21.50;54.30;;;;;;10494813;28;20148;-34
2022/09/16 03:42:58;;;;;;;1.25;0.45;;;20.70;55.40;;;;;;10481378;28;20481;-34
2022/09/16 03:48:00;;;;;;;5.35;0.52;;;21.60;53.90;;;;;;10520712;28;20435;-32
2022/09/16 03:53:03;;;;;;;1.73;0.32;;;21.60;53.40;;;;;;10523942;28;20493;-33
2022/09/16 03:58:05;;;;;;;2.22;0.52;;;21.90;52.90;;;;;;10525970;28;20135;-36
2022/09/16 04:03:07;;;;;;;4.00;0.50;;;21.60;53.70;;;;;;10522921;28;20048;-36
2022/09/16 04:08:10;;;;;;;3.00;0.40;;;19.60;59.10;;;;;;10525932;28;20048;-35
2022/09/16 04:13:12;;;;;;;4.63;0.75;;;20.40;56.60;;;;;;10518961;28;21084;-38
2022/09/16 04:18:13;;;;;;;6.32;0.93;;;20.30;56.60;;;;;;10525596;28;20098;-33
2022/09/16 04:23:17;;;;;;;2.60;0.60;;;19.90;57.50;;;;;;10522520;28;20503;-36
2022/09/16 04:28:19;;;;;;;4.03;0.60;;;19.00;61.20;;;;;;10520637;28;20109;-30
2022/09/16 04:33:21;;;;;;;1.70;0.70;;;18.90;58.70;;;;;;10523789;28;20135;-36
2022/09/16 04:38:24;;;;;;;4.95;1.33;;;19.10;60.20;;;;;;10523366;28;20117;-36
2022/09/16 04:43:26;;;;;;;3.40;0.50;;;18.70;61.60;;;;;;10522342;28;20137;-34
2022/09/16 04:48:28;;;;;;;5.45;0.70;;;18.30;60.10;;;;;;10520353;28;20102;-35
2022/09/16 04:53:31;;;;;;;3.10;0.63;;;18.40;58.40;;;;;;10519840;28;20052;-36
2022/09/16 04:58:33;;;;;;;5.65;0.82;;;18.70;57.70;;;;;;10519480;28;20058;-40
2022/09/16 05:03:35;;;;;;;2.03;0.95;;;19.80;56.70;;;;;;10515386;28;20127;-34
2022/09/16 05:08:38;;;;;;;3.90;0.50;;;19.80;56.90;;;;;;10517322;28;20040;-33
2022/09/16 05:13:41;;;;;;;6.03;0.90;;;19.40;58.90;;;;;;10517289;28;20147;-33
2022/09/16 05:18:44;;;;;;;5.70;0.80;;;18.90;58.20;;;;;;10514444;28;20050;-32
2022/09/16 05:23:48;;;;;;;1.65;0.63;;;18.80;56.80;;;;;;10520383;28;20135;-35
2022/09/16 05:28:51;;;;;;;4.53;0.77;;;18.80;59.30;;;;;;10520456;28;20706;-32
2022/09/16 05:33:54;;;;;;;;;;;17.30;63.60;;;;;;10521380;28;20123;-34
2022/09/16 05:38:58;;;;;;;7.97;1.02;;;17.70;62.00;;;;;;10520151;28;19924;-28
2022/09/16 05:44:00;;;;;;;4.60;1.02;;;17.40;65.20;;;;;;10517021;28;20453;-35
2022/09/16 05:49:02;;;;;;;3.55;0.88;;;20.10;57.30;;;;;;10519514;28;20063;-33
2022/09/16 05:54:05;;;;;;;;;;;20.70;56.00;;;;;;10514352;28;20052;-39
2022/09/16 05:59:07;;;;;;;3.47;0.50;;;18.80;58.40;;;;;;10513411;28;20012;-29
2022/09/16 06:04:11;;;;;;;6.18;0.75;;;19.80;56.30;;;;;;10510135;28;20133;-36
2022/09/16 06:09:16;;;;;;;4.85;0.70;;;19.10;58.50;;;;;;10510566;28;20677;-32
2022/09/16 06:14:21;;;;;;;4.90;1.63;;;18.00;62.00;;;;;;10515743;28;20114;-33
2022/09/16 06:19:23;;;;;;;5.22;2.17;;;19.00;59.90;;;;;;10514910;28;20062;-36
2022/09/16 06:24:26;;;;;;;9.43;3.67;;;19.00;59.70;;;;;;10514231;28;20098;-31
2022/09/16 06:29:28;;;;;;;8.48;1.52;;;19.60;57.80;;;;;;10508827;28;20120;-35
2022/09/16 06:34:30;;;;;;;6.90;1.60;;;19.40;57.30;;;;;;10515743;28;20129;-33
2022/09/16 06:39:33;;;;;;;7.07;1.38;;;19.50;59.50;;;;;;10513800;28;20540;-30
2022/09/16 06:44:35;;;;;;;4.38;1.00;;;21.20;54.40;;;;;;10510364;28;20160;-33
2022/09/16 06:49:37;;;;;;;8.70;0.73;;;20.50;56.70;;;;;;10519132;28;20048;-34
2022/09/16 06:54:40;;;;;;;3.35;0.80;;;18.00;60.20;;;;;;10517230;28;20476;-39
2022/09/16 06:59:42;;;;;;;4.57;1.13;;;19.20;58.90;;;;;;10514982;28;20536;-33
2022/09/16 07:04:44;;;;;;;4.18;1.15;;;18.60;60.70;;;;;;10518520;28;20174;-34
2022/09/16 07:09:48;;;;;;;7.55;0.90;;;18.70;61.40;;;;;;10521815;28;20071;-34
2022/09/16 07:14:51;;;;;;;3.92;0.93;;;19.60;58.00;;;;;;10523257;28;20178;-33
2022/09/16 07:19:54;;;;;;;3.88;0.75;;;20.50;56.10;;;;;;10517486;28;20040;-35
2022/09/16 07:24:57;;;;;;;8.15;1.25;;;20.80;54.90;;;;;;10510185;28;20044;-38
2022/09/16 07:29:58;;;;;;;4.95;1.38;;;19.20;58.80;;;;;;10520822;28;20068;-34
2022/09/16 07:35:00;;;;;;;8.00;0.88;;;18.30;59.30;;;;;;10521128;28;20059;-33
2022/09/16 07:40:04;;;;;;;6.60;0.97;;;17.60;64.40;;;;;;10516375;28;20179;-35
2022/09/16 07:45:07;;;;;;;9.32;1.35;;;19.20;58.40;;;;;;10515309;28;20056;-36
2022/09/16 07:50:10;;;;;;;4.78;0.88;;;17.10;64.90;;;;;;10512627;28;20055;-32
2022/09/16 07:55:14;;;;;;;7.15;0.60;;;17.50;61.60;;;;;;10513061;28;20137;-38
2022/09/16 08:00:16;;;;;;;3.38;0.70;;;18.10;60.00;;;;;;10518496;28;20080;-40
2022/09/16 08:05:18;;;;;;;2.65;0.82;;;18.50;59.00;;;;;;10513905;28;20101;-34
2022/09/16 08:10:21;;;;;;;4.53;0.77;;;19.10;58.70;;;;;;10514070;28;20040;-36
2022/09/16 08:15:23;;;;;;;4.85;0.70;;;17.30;61.40;;;;;;10514103;28;20050;-36
2022/09/16 08:20:27;;;;;;;5.45;0.88;;;18.30;60.10;;;;;;10515742;28;20136;-34
2022/09/16 08:25:30;;;;;;;4.35;0.70;;;18.00;61.70;;;;;;10514271;28;20044;-37
2022/09/16 08:30:31;;;;;;;3.80;0.88;;;17.40;61.00;;;;;;10513290;28;20143;-39
2022/09/16 08:35:34;;;;;;;6.93;1.00;;;17.20;61.90;;;;;;10515488;28;20492;-32
2022/09/16 08:40:39;;;;;;;7.25;1.02;;;19.20;57.20;;;;;;10516126;28;20447;-37
2022/09/16 08:45:49;;;;;;;12.43;0.90;;;18.50;60.00;;;;;;10517916;28;20056;-35
2022/09/16 08:50:52;;;;;;;2.60;0.77;;;18.50;56.90;;;;;;10522946;28;20056;-35
2022/09/16 08:55:55;;;;;;;3.05;0.40;;;18.20;58.00;;;;;;10520740;28;20421;-34
2022/09/16 09:01:02;;;;;;;7.07;1.15;;;19.60;57.10;;;;;;10515111;28;20072;-32
2022/09/16 09:06:11;;;;;;;3.20;1.27;;;18.40;60.10;;;;;;10517615;28;20045;-37
2022/09/16 09:11:21;;;;;;;9.68;1.25;;;18.70;60.40;;;;;;10519288;28;20044;-35
2022/09/16 09:16:32;;;;;;;8.00;0.75;;;18.10;60.50;;;;;;10511991;28;20040;-33
2022/09/16 09:21:41;;;;;;;4.70;1.65;;;18.10;60.30;;;;;;10506678;28;20058;-34
2022/09/16 09:26:49;;;;;;;5.38;0.40;;;17.90;60.60;;;;;;10519926;28;20048;-35
2022/09/16 09:31:57;;;;;;;2.35;0.28;;;17.90;58.10;;;;;;10504036;28;20140;-34
2022/09/16 09:37:17;;;;;;;2.70;0.50;;;17.30;61.10;;;;;;10511425;28;20131;-35
2022/09/16 09:42:25;;;;;;;1.38;0.50;;;18.60;57.00;;;;;;10516456;28;20047;-32
2022/09/16 09:47:32;;;;;;;3.30;0.40;;;18.20;59.60;;;;;;10517294;28;20048;-37
2022/09/16 09:52:40;;;;;;;4.70;0.88;;;18.20;60.00;;;;;;10515455;28;20059;-34
2022/09/16 09:57:55;;;;;;;2.95;0.55;;;18.10;61.90;;;;;;10502993;28;20109;-35
2022/09/16 10:03:04;;;;;;;5.38;1.27;;;19.50;57.50;;;;;;10512811;28;20474;-32
2022/09/16 10:08:15;;;;;;;4.72;1.10;;;19.20;58.70;;;;;;10512947;28;20097;-33
2022/09/16 10:13:19;;;;;;;7.82;1.50;;;19.50;58.40;;;;;;10515292;28;20528;-37
2022/09/16 10:18:28;;;;;;;4.57;0.90;;;19.80;57.00;;;;;;10511933;28;20122;-35
2022/09/16 10:23:30;;;;;;;2.08;0.73;;;19.70;57.50;;;;;;10514718;28;20048;-33
2022/09/16 10:28:34;;;;;;;1.83;0.63;;;19.20;59.40;;;;;;10507930;28;20066;-33
2022/09/16 10:33:42;;;;;;;9.35;0.95;;;19.10;57.90;;;;;;10522987;28;20437;-33
2022/09/16 10:38:56;;;;;;;1.40;0.60;;;19.50;58.30;;;;;;10528575;28;20048;-34
2022/09/16 10:44:02;;;;;;;3.15;0.70;;;20.10;56.70;;;;;;10526775;28;20079;-35
2022/09/16 10:49:10;;;;;;;5.88;0.55;;;18.50;59.30;;;;;;10526652;28;20526;-39
2022/09/16 10:54:26;;;;;;;7.55;0.70;;;19.20;58.40;;;;;;10523434;28;20044;-29
2022/09/16 10:59:30;;;;;;;2.95;0.60;;;18.50;60.40;;;;;;10522677;28;20139;-33
2022/09/16 11:04:45;;;;;;;1.90;0.63;;;20.30;55.20;;;;;;10525262;28;21609;-33
2022/09/16 11:09:55;;;;;;;2.38;0.63;;;19.00;57.40;;;;;;10517589;28;20132;-40
2022/09/16 11:15:10;;;;;;;0.82;0.30;;;18.60;56.70;;;;;;10524958;28;20040;-34
2022/09/16 11:20:43;;;;;;;4.50;0.80;;;18.80;58.80;;;;;;10519809;28;20134;-33
2022/09/16 11:25:54;;;;;;;5.72;1.10;;;19.10;56.90;;;;;;10516102;28;20147;-34
2022/09/16 11:31:05;;;;;;;6.30;0.63;;;18.40;60.30;;;;;;10523010;28;20109;-36
2022/09/16 11:36:25;;;;;;;12.23;1.23;;;19.40;58.00;;;;;;10522959;28;20099;-35
2022/09/16 11:41:32;;;;;;;4.88;0.77;;;18.30;58.40;;;;;;10516596;28;20140;-34
2022/09/16 11:46:42;;;;;;;10.75;0.90;;;18.60;58.40;;;;;;10519722;28;20271;-36
2022/09/16 11:52:00;;;;;;;6.10;1.13;;;18.50;57.20;;;;;;10520262;28;20075;-36
2022/09/16 11:57:07;;;;;;;4.30;0.80;;;18.10;60.80;;;;;;10524207;28;20509;-35
2022/09/16 12:02:17;;;;;;;6.93;1.08;;;18.40;59.10;;;;;;10516813;28;20080;-33
2022/09/16 12:07:25;;;;;;;2.25;0.70;;;19.20;57.30;;;;;;10523146;28;20705;-33
2022/09/16 12:12:32;;;;;;;6.60;0.95;;;18.90;57.10;;;;;;10515362;28;20036;-34
2022/09/16 12:17:39;;;;;;;2.38;0.60;;;19.90;56.00;;;;;;10522578;28;20048;-34
2022/09/16 12:22:45;;;;;;;4.57;0.98;;;20.50;54.00;;;;;;10540833;28;20052;-36
2022/09/16 12:27:51;;;;;;;5.53;0.75;;;21.10;52.30;;;;;;10530911;28;20040;-36
2022/09/16 12:33:01;;;;;;;4.18;0.63;;;21.00;53.10;;;;;;10532846;28;20437;-35
2022/09/16 12:38:03;;;;;;;3.67;0.43;;;21.10;52.80;;;;;;10536630;28;20487;-39
2022/09/16 12:43:18;;;;;;;;;;;21.20;52.00;;;;;;10530747;28;20534;-40
2022/09/16 12:48:39;;;;;;;7.95;1.67;;;21.80;51.30;;;;;;10516397;28;19924;-35
2022/09/16 12:54:11;;;;;;;1.67;0.67;;;21.90;51.40;;;;;;10518770;28;20124;-36
2022/09/16 12:59:48;;;;;;;2.83;0.82;;;21.70;52.00;;;;;;10524974;28;20071;-37
2022/09/16 13:04:54;;;;;;;2.15;0.63;;;21.80;51.50;;;;;;10536889;28;20583;-36
2022/09/16 13:10:02;;;;;;;4.30;1.40;;;22.40;51.10;;;;;;10528526;28;20398;-34
2022/09/16 13:15:06;;;;;;;4.55;2.30;;;22.10;51.00;;;;;;10533422;28;20144;-39
2022/09/16 13:20:18;;;;;;;8.98;3.22;;;22.00;51.20;;;;;;10531135;28;20052;-35
2022/09/16 13:25:23;;;;;;;6.55;2.78;;;22.20;51.00;;;;;;10531623;28;20075;-33
2022/09/16 13:30:31;;;;;;;7.75;2.10;;;22.00;51.50;;;;;;10529164;28;20069;-32
2022/09/16 13:35:40;;;;;;;5.22;1.23;;;21.70;52.40;;;;;;10529844;28;20111;-36
2022/09/16 13:40:54;;;;;;;11.65;1.42;;;19.90;57.70;;;;;;10531540;28;20067;-37
2022/09/16 13:46:02;;;;;;;6.70;1.00;;;19.20;58.10;;;;;;10525459;28;20087;-33
2022/09/16 13:51:17;;;;;;;6.55;1.00;;;20.10;56.80;;;;;;10526011;28;20075;-35
2022/09/16 13:56:36;;;;;;;4.68;1.10;;;20.00;55.50;;;;;;10530648;28;20056;-36
2022/09/16 14:01:45;;;;;;;4.75;0.88;;;20.40;56.60;;;;;;10525674;28;20093;-33
2022/09/16 14:07:05;;;;;;;4.00;0.98;;;21.40;52.80;;;;;;10526156;28;20052;-34
2022/09/16 14:12:15;;;;;;;3.75;0.70;;;19.20;58.90;;;;;;10523595;28;20040;-37
2022/09/16 14:17:21;;;;;;;7.80;0.90;;;18.20;59.60;;;;;;10528670;28;20119;-34
2022/09/16 14:22:26;;;;;;;11.20;1.08;;;18.20;61.00;;;;;;10529780;28;20044;-37
2022/09/16 14:27:32;;;;;;;4.90;0.80;;;20.10;54.90;;;;;;10527089;28;20067;-34
2022/09/16 14:32:37;;;;;;;4.60;0.70;;;20.00;56.20;;;;;;10531188;28;20488;-36
2022/09/16 14:37:44;;;;;;;13.68;1.25;;;20.10;55.70;;;;;;10528872;28;20072;-39
2022/09/16 14:42:51;;;;;;;4.63;0.80;;;20.30;54.10;;;;;;10528295;28;20084;-34
2022/09/16 14:47:55;;;;;;;11.57;1.70;;;19.20;56.00;;;;;;10530550;28;20056;-30
2022/09/16 14:52:59;;;;;;;7.80;1.40;;;19.10;54.60;;;;;;10515531;28;20135;-35
2022/09/16 14:58:02;;;;;;;3.78;0.60;;;19.10;56.80;;;;;;10526803;28;20126;-34
2022/09/16 15:03:05;;;;;;;;;;;19.60;54.50;;;;;;10529170;28;20091;-34
2022/09/16 15:08:15;;;;;;;4.53;0.98;;;20.30;52.40;;;;;;10528842;28;19959;-35
2022/09/16 15:13:19;;;;;;;14.45;1.17;;;20.30;53.80;;;;;;10532331;28;20064;-33
2022/09/16 15:18:25;;;;;;;5.05;0.77;;;19.90;54.10;;;;;;10521873;28;20548;-34
2022/09/16 15:23:29;;;;;;;5.53;0.90;;;19.70;53.00;;;;;;10536597;28;20480;-37
2022/09/16 15:28:31;;;;;;;9.02;1.00;;;19.90;54.10;;;;;;10541872;28;20121;-37
2022/09/16 15:33:35;;;;;;;3.45;0.57;;;19.30;54.90;;;;;;10538883;28;20044;-34
2022/09/16 15:38:38;;;;;;;4.97;1.10;;;20.40;53.90;;;;;;10531677;28;20476;-34
2022/09/16 15:43:42;;;;;;;16.98;2.85;;;18.90;55.40;;;;;;10542686;28;20101;-36
2022/09/16 15:48:47;;;;;;;4.18;0.68;;;19.50;54.70;;;;;;10533680;28;20122;-35
2022/09/16 15:53:52;;;;;;;6.80;1.75;;;19.50;54.20;;;;;;10523885;28;20200;-35
2022/09/16 15:58:57;;;;;;;8.43;1.02;;;19.30;55.90;;;;;;10533118;28;20382;-35
2022/09/16 16:04:01;;;;;;;3.35;0.90;;;19.20;54.50;;;;;;10544672;28;20409;-35
2022/09/16 16:09:04;;;;;;;11.25;1.40;;;19.90;52.30;;;;;;10530918;28;20047;-34
2022/09/16 16:14:07;;;;;;;9.70;1.60;;;19.90;53.50;;;;;;10541025;28;20043;-32
2022/09/16 16:19:10;;;;;;;10.70;1.58;;;20.10;52.70;;;;;;10528324;28;20078;-39
2022/09/16 16:24:13;;;;;;;4.43;1.00;;;19.50;51.00;;;;;;10530769;28;20048;-33
2022/09/16 16:29:15;;;;;;;7.63;1.40;;;19.10;57.20;;;;;;10529374;28;20481;-34
2022/09/16 16:34:17;;;;;;;6.57;1.65;;;18.80;54.80;;;;;;10520523;28;20048;-40
2022/09/16 16:39:21;;;;;;;7.35;1.08;;;19.30;54.90;;;;;;10526518;28;20040;-35
2022/09/16 16:44:24;;;;;;;11.55;1.45;;;18.50;56.90;;;;;;10531870;28;20060;-35
2022/09/16 16:49:26;;;;;;;5.95;1.33;;;19.00;55.20;;;;;;10534544;28;20062;-35
2022/09/16 16:54:29;;;;;;;13.80;2.17;;;18.20;56.30;;;;;;10529300;28;20106;-36
2022/09/16 16:59:31;;;;;;;10.40;1.90;;;17.80;58.90;;;;;;10526824;28;20493;-33
2022/09/16 17:04:33;;;;;;;7.80;1.20;;;18.10;59.60;;;;;;10525649;28;20613;-31
2022/09/16 17:09:37;;;;;;;19.40;2.83;;;18.60;57.60;;;;;;10525072;28;20078;-33
2022/09/16 17:14:39;;;;;;;15.23;1.25;;;17.70;60.60;;;;;;10524917;28;20075;-32
2022/09/16 17:19:41;;;;;;;15.25;2.00;;;17.30;53.90;;;;;;10530938;28;20047;-41
2022/09/16 17:24:44;;;;;;;8.47;1.30;;;17.00;60.30;;;;;;10526678;28;20431;-34
2022/09/16 17:29:46;;;;;;;10.82;1.90;;;17.70;58.90;;;;;;10528149;28;20510;-36
2022/09/16 17:34:48;;;;;;;12.67;1.73;;;18.60;59.30;;;;;;10527623;28;20068;-34
2022/09/16 17:39:51;;;;;;;10.38;1.42;;;18.50;56.80;;;;;;10529447;28;20059;-39
2022/09/16 17:44:53;;;;;;;11.40;1.40;;;17.90;56.10;;;;;;10523751;28;20060;-34
2022/09/16 17:49:58;;;;;;;12.77;2.33;;;17.30;58.20;;;;;;10531003;28;20076;-34
2022/09/16 17:55:01;;;;;;;10.52;1.40;;;16.30;64.00;;;;;;10525722;28;20579;-32
2022/09/16 18:00:04;;;;;;;9.73;1.65;;;16.00;66.50;;;;;;10527493;28;20177;-33
2022/09/16 18:05:07;;;;;;;1.88;0.85;;;15.40;62.20;;;;;;10527895;28;20069;-38
2022/09/16 18:10:10;;;;;;;;;;;16.30;61.90;;;;;;10529419;28;20400;-33
2022/09/16 18:15:11;;;;;;;;;;;17.70;62.80;;;;;;10517569;28;19928;-34
2022/09/16 18:20:13;;;;;;;6.00;1.92;;;16.50;59.10;;;;;;10527316;28;20387;-33
2022/09/16 18:25:17;;;;;;;4.13;0.93;;;17.40;61.50;;;;;;10523619;28;20101;-37
2022/09/16 18:30:19;;;;;;;12.63;1.73;;;18.10;57.80;;;;;;10533948;28;20513;-35
2022/09/16 18:35:20;;;;;;;8.20;1.73;;;17.00;61.40;;;;;;10527206;28;20601;-34
2022/09/16 18:40:23;;;;;;;12.23;1.93;;;17.00;61.50;;;;;;10527054;28;20055;-33
2022/09/16 18:45:26;;;;;;;5.72;1.35;;;16.40;62.80;;;;;;10530916;28;20490;-35
2022/09/16 18:50:28;;;;;;;12.35;1.60;;;17.70;62.60;;;;;;10522025;28;20040;-35
2022/09/16 18:55:31;;;;;;;9.82;1.50;;;16.70;65.00;;;;;;10534101;28;20133;-36
2022/09/16 19:00:34;;;;;;;9.90;1.42;;;16.30;67.00;;;;;;10530792;28;20429;-33
2022/09/16 19:05:36;;;;;;;11.15;1.65;;;17.00;64.40;;;;;;10533836;28;20105;-33
2022/09/16 19:10:39;;;;;;;6.07;1.33;;;16.60;62.80;;;;;;10533741;28;20416;-37
2022/09/16 19:15:41;;;;;;;10.55;1.48;;;17.20;63.30;;;;;;10546941;28;20078;-35
2022/09/16 19:20:44;;;;;;;15.67;1.83;;;16.70;65.70;;;;;;10536094;28;20500;-35
2022/09/16 19:25:47;;;;;;;12.68;2.80;;;16.20;65.30;;;;;;10522457;28;20044;-35
2022/09/16 19:30:49;;;;;;;10.48;2.33;;;16.00;67.90;;;;;;10531686;28;20044;-38
2022/09/16 19:35:51;;;;;;;15.02;1.70;;;17.20;63.30;;;;;;10533668;28;20040;-38
2022/09/16 19:41:00;;;;;;;11.57;1.90;;;16.60;63.70;;;;;;10533243;28;20040;-33
2022/09/16 19:46:06;;;;;;;15.82;2.38;;;16.60;63.90;;;;;;10534169;28;20089;-34
2022/09/16 19:51:10;;;;;;;9.68;1.55;;;19.20;57.30;;;;;;10534021;28;20131;-33
2022/09/16 19:56:16;;;;;;;9.65;1.48;;;18.50;60.00;;;;;;10531452;28;20195;-33
2022/09/16 20:01:22;;;;;;;14.60;2.03;;;18.90;58.60;;;;;;10530362;28;20664;-32
2022/09/16 20:06:26;;;;;;;8.95;1.80;;;16.50;64.30;;;;;;10527284;28;20493;-34
2022/09/16 20:11:31;;;;;;;10.35;1.75;;;16.80;64.50;;;;;;10530670;28;20048;-34
2022/09/16 20:16:35;;;;;;;10.38;1.50;;;18.30;59.70;;;;;;10517907;28;20489;-40
2022/09/16 20:21:37;;;;;;;8.77;1.60;;;18.40;60.60;;;;;;10527811;28;20056;-39
2022/09/16 20:26:40;;;;;;;11.25;1.67;;;17.60;62.70;;;;;;10530861;28;20171;-40
2022/09/16 20:31:42;;;;;;;10.98;1.25;;;18.20;59.40;;;;;;10531987;28;20551;-35
2022/09/16 20:36:45;;;;;;;7.93;1.53;;;16.80;62.90;;;;;;10530879;28;20058;-35
2022/09/16 20:41:51;;;;;;;3.35;0.88;;;16.20;62.60;;;;;;10529527;28;20073;-31
2022/09/16 20:46:53;;;;;;;2.97;1.13;;;17.60;61.30;;;;;;10532709;28;20063;-38
2022/09/16 20:51:54;;;;;;;8.57;1.67;;;19.40;57.00;;;;;;10526450;28;20118;-40
2022/09/16 20:56:57;;;;;;;5.70;0.90;;;19.10;59.20;;;;;;10534659;28;20413;-36
2022/09/16 21:02:02;;;;;;;7.38;1.08;;;19.50;56.90;;;;;;10533368;28;20121;-36
2022/09/16 21:07:04;;;;;;;7.85;0.95;;;18.30;60.70;;;;;;10532609;28;20157;-39
2022/09/16 21:12:08;;;;;;;7.75;2.25;;;18.50;59.30;;;;;;10531435;28;20040;-35
2022/09/16 21:17:10;;;;;;;9.23;1.58;;;17.60;62.00;;;;;;10530470;28;20167;-39
2022/09/16 21:22:12;;;;;;;15.68;1.63;;;17.20;64.10;;;;;;10530111;28;20052;-40
2022/09/16 21:27:15;;;;;;;11.05;1.52;;;16.50;69.20;;;;;;10547656;28;20040;-40
2022/09/16 21:32:17;;;;;;;11.48;1.77;;;17.70;64.30;;;;;;10529688;28;20468;-37
2022/09/16 21:37:19;;;;;;;12.68;2.05;;;18.00;61.90;;;;;;10526978;28;20473;-36
2022/09/16 21:42:22;;;;;;;4.88;1.33;;;18.70;60.00;;;;;;10526907;28;20498;-38
2022/09/16 21:47:26;;;;;;;5.93;0.98;;;18.50;60.00;;;;;;10514051;28;20518;-34
2022/09/16 21:52:27;;;;;;;7.75;1.55;;;18.10;61.40;;;;;;10533448;28;20090;-34
2022/09/16 21:57:31;;;;;;;7.17;1.53;;;17.90;62.30;;;;;;10526666;28;20048;-33
2022/09/16 22:02:32;;;;;;;12.07;1.40;;;16.70;65.30;;;;;;10515272;28;20103;-39
2022/09/16 22:07:34;;;;;;;3.40;1.13;;;17.10;64.40;;;;;;10528705;28;20109;-35
2022/09/16 22:12:37;;;;;;;6.43;1.02;;;18.10;62.50;;;;;;10528766;28;20040;-33
2022/09/16 22:17:41;;;;;;;10.15;1.52;;;17.00;66.00;;;;;;10542386;28;20646;-35
2022/09/16 22:22:43;;;;;;;6.50;1.10;;;16.20;68.00;;;;;;10527951;28;20711;-38
2022/09/16 22:27:46;;;;;;;8.77;1.02;;;18.10;62.80;;;;;;10519840;28;20452;-34
2022/09/16 22:32:48;;;;;;;9.65;1.10;;;18.40;60.80;;;;;;10525622;28;20055;-31
2022/09/16 22:37:50;;;;;;;4.97;1.52;;;19.40;58.20;;;;;;10533219;28;20097;-36
2022/09/16 22:42:53;;;;;;;11.20;3.65;;;17.70;63.30;;;;;;10537032;28;20130;-33
2022/09/16 22:47:55;;;;;;;7.43;0.90;;;18.80;59.40;;;;;;10535330;28;20185;-34
2022/09/16 22:52:57;;;;;;;6.53;1.60;;;19.00;58.60;;;;;;10531377;28;20082;-37
2022/09/16 22:58:00;;;;;;;5.23;1.23;;;18.40;61.00;;;;;;10536859;28;20492;-36
2022/09/16 23:03:02;;;;;;;13.32;1.63;;;18.10;60.40;;;;;;10528296;28;20603;-36
2022/09/16 23:08:03;;;;;;;8.35;1.30;;;17.30;64.00;;;;;;10526853;28;20093;-34
2022/09/16 23:13:06;;;;;;;11.57;1.70;;;16.90;65.20;;;;;;10536035;28;20549;-34
2022/09/16 23:18:08;;;;;;;8.07;1.38;;;16.80;64.20;;;;;;10542801;28;21063;-33
2022/09/16 23:23:10;;;;;;;8.60;1.23;;;18.20;61.00;;;;;;10533279;28;20040;-37
2022/09/16 23:28:13;;;;;;;4.47;1.27;;;16.50;66.50;;;;;;10534207;28;20055;-37
2022/09/16 23:33:15;;;;;;;3.47;0.60;;;17.10;64.50;;;;;;10535966;28;20123;-33
2022/09/16 23:38:16;;;;;;;7.87;1.27;;;18.20;61.30;;;;;;10529546;28;20122;-32
2022/09/16 23:43:20;;;;;;;4.43;0.87;;;16.90;60.00;;;;;;10534145;28;20052;-39
2022/09/16 23:48:21;;;;;;;10.90;1.48;;;16.60;66.50;;;;;;10532287;28;20080;-33
2022/09/16 23:53:23;;;;;;;16.50;1.67;;;15.60;70.30;;;;;;10534389;28;20079;-34
2022/09/16 23:58:26;;;;;;;12.10;1.43;;;15.20;72.60;;;;;;10533250;28;20083;-30
